Time;durP1;ratioP1;P1;durP2;ratioP2;P2;SDS_P1;SDS_P2;PMS_P1;PMS_P2;Temp;Humidity;BMP_temperature;BMP_pressure;BME280_temperature;BME280_humidity;BME280_pressure;Samples;Min_cycle;Max_cycle;Signal;HPM_P1;HPM_P2
2022/05/18 00:02:11;;;;;;;0.00;0.00;;;;;;;15.88;100.00;100935.38;5074457;28;20206;-72
2022/05/18 00:04:36;;;;;;;0.00;0.00;;;;;;;15.88;100.00;100942.84;5074473;28;20538;-73
2022/05/18 00:07:03;;;;;;;0.00;0.00;;;;;;;16.01;100.00;100936.25;5074357;28;20174;-72
2022/05/18 00:09:28;;;;;;;0.00;0.00;;;;;;;16.11;100.00;100946.88;5074311;28;20182;-72
2022/05/18 00:11:54;;;;;;;0.00;0.00;;;;;;;16.00;100.00;100938.19;5074475;28;20175;-72
2022/05/18 00:14:19;;;;;;;0.00;0.00;;;;;;;16.02;100.00;100940.63;5074589;28;20185;-71
2022/05/18 00:16:44;;;;;;;0.00;0.00;;;;;;;16.01;100.00;100945.31;5074073;28;20170;-72
2022/05/18 00:19:10;;;;;;;0.97;0.97;;;;;;;16.11;100.00;100940.56;5073772;28;20182;-72
2022/05/18 00:21:35;;;;;;;0.00;0.00;;;;;;;16.02;100.00;100941.44;5074053;28;20232;-72
2022/05/18 00:24:00;;;;;;;0.30;0.30;;;;;;;16.18;100.00;100941.63;5073935;28;20171;-72
2022/05/18 00:26:26;;;;;;;0.00;0.00;;;;;;;16.17;100.00;100942.78;5074064;28;20174;-72
2022/05/18 00:28:52;;;;;;;0.00;0.00;;;;;;;16.22;100.00;100947.28;5072319;28;20258;-72
2022/05/18 00:31:19;;;;;;;1.40;1.40;;;;;;;16.19;100.00;100953.47;5073658;28;20251;-72
2022/05/18 00:33:48;;;;;;;0.57;0.57;;;;;;;16.12;100.00;100954.00;5072190;28;20171;-71
2022/05/18 00:36:13;;;;;;;0.00;0.00;;;;;;;16.12;100.00;100958.72;5073838;28;20167;-71
2022/05/18 00:38:39;;;;;;;0.20;0.20;;;;;;;16.10;100.00;100956.31;5073747;28;20227;-72
2022/05/18 00:41:04;;;;;;;0.00;0.00;;;;;;;16.08;100.00;100958.59;5073776;28;20179;-72
2022/05/18 00:43:30;;;;;;;0.00;0.00;;;;;;;16.04;100.00;100965.91;5073678;28;20726;-72
2022/05/18 00:45:56;;;;;;;0.00;0.00;;;;;;;16.06;100.00;100972.72;5073377;28;20664;-72
2022/05/18 00:48:22;;;;;;;0.00;0.00;;;;;;;15.81;100.00;100965.41;5073451;28;20201;-71
2022/05/18 00:50:49;;;;;;;0.00;0.00;;;;;;;15.87;100.00;100964.06;5073697;28;20185;-72
2022/05/18 00:53:29;;;;;;;0.00;0.00;;;;;;;15.86;100.00;100969.91;5073341;28;20642;-73
2022/05/18 00:56:00;;;;;;;0.00;0.00;;;;;;;15.92;100.00;100972.16;5073466;28;20173;-71
2022/05/18 00:58:39;;;;;;;0.00;0.00;;;;;;;15.87;100.00;100972.34;5073223;28;20170;-71
2022/05/18 01:01:04;;;;;;;0.00;0.00;;;;;;;15.89;100.00;100974.75;5073006;28;20166;-72
2022/05/18 01:03:36;;;;;;;0.00;0.00;;;;;;;15.92;100.00;100977.66;5073372;28;20649;-72
2022/05/18 01:06:08;;;;;;;0.00;0.00;;;;;;;15.90;100.00;100979.13;5073388;28;20254;-72
2022/05/18 01:08:44;;;;;;;0.00;0.00;;;;;;;15.94;100.00;100977.34;5073104;28;20228;-73
2022/05/18 01:11:10;;;;;;;0.00;0.00;;;;;;;15.90;100.00;100990.94;5072978;28;20170;-72
2022/05/18 01:13:35;;;;;;;0.00;0.00;;;;;;;15.74;100.00;100982.47;5073224;28;20174;-71
2022/05/18 01:16:01;;;;;;;0.00;0.00;;;;;;;15.60;100.00;100992.91;5073128;28;20649;-72
2022/05/18 01:18:27;;;;;;;0.00;0.00;;;;;;;15.58;100.00;100986.09;5073012;28;20231;-73
2022/05/18 01:20:53;;;;;;;0.00;0.00;;;;;;;15.73;100.00;100985.56;5073040;28;20178;-72
2022/05/18 01:23:42;;;;;;;0.00;0.00;;;;;;;15.73;100.00;100983.59;5072897;28;20271;-72
2022/05/18 01:26:19;;;;;;;0.00;0.00;;;;;;;15.66;100.00;100983.34;5073119;28;20564;-72
2022/05/18 01:28:53;;;;;;;0.00;0.00;;;;;;;15.42;100.00;100975.63;5072836;28;20167;-73
2022/05/18 01:31:42;;;;;;;0.00;0.00;;;;;;;15.36;100.00;100965.16;5071584;28;20243;-73
2022/05/18 01:34:08;;;;;;;0.00;0.00;;;;;;;15.31;100.00;100976.31;5072502;28;20536;-72
2022/05/18 01:36:33;;;;;;;0.00;0.00;;;;;;;15.32;100.00;100969.69;5072433;28;20171;-72
2022/05/18 01:38:59;;;;;;;0.00;0.00;;;;;;;15.31;100.00;100973.56;5072515;28;20166;-72
2022/05/18 01:41:28;;;;;;;0.00;0.00;;;;;;;15.31;100.00;100965.31;5072581;28;20206;-72
2022/05/18 01:43:56;;;;;;;0.00;0.00;;;;;;;15.39;100.00;100965.28;5071995;28;20196;-73
2022/05/18 01:46:22;;;;;;;0.00;0.00;;;;;;;15.38;100.00;100966.41;5072524;28;20174;-72
2022/05/18 01:48:51;;;;;;;0.00;0.00;;;;;;;15.32;100.00;100967.72;5072336;28;20216;-72
2022/05/18 01:51:32;;;;;;;0.00;0.00;;;;;;;15.39;100.00;100967.22;5072569;28;20540;-71
2022/05/18 01:53:58;;;;;;;0.83;0.83;;;;;;;15.37;100.00;100969.50;5072170;28;20208;-74
2022/05/18 01:56:23;;;;;;;0.00;0.00;;;;;;;15.29;100.00;100970.34;5072624;28;20174;-72
2022/05/18 01:58:48;;;;;;;0.00;0.00;;;;;;;15.30;100.00;100974.72;5072068;28;20652;-72
2022/05/18 02:01:14;;;;;;;0.00;0.00;;;;;;;15.31;100.00;100968.06;5071714;28;20195;-72
2022/05/18 02:03:39;;;;;;;0.00;0.00;;;;;;;15.38;100.00;100973.88;5072014;28;20182;-72
2022/05/18 02:06:04;;;;;;;0.00;0.00;;;;;;;15.26;100.00;100969.06;5072160;28;20174;-73
2022/05/18 02:08:30;;;;;;;0.00;0.00;;;;;;;15.30;100.00;100964.50;5071714;28;20178;-72
2022/05/18 02:10:55;;;;;;;0.10;0.10;;;;;;;15.38;100.00;100963.66;5072005;28;20173;-72
2022/05/18 02:13:21;;;;;;;0.00;0.00;;;;;;;15.34;100.00;100973.75;5071922;28;20180;-71
2022/05/18 02:15:46;;;;;;;0.17;0.17;;;;;;;15.40;100.00;100971.59;5068401;28;20187;-73
2022/05/18 02:18:12;;;;;;;0.00;0.00;;;;;;;15.41;100.00;100979.53;5071612;28;20233;-72
2022/05/18 02:20:39;;;;;;;0.30;0.30;;;;;;;15.43;100.00;100976.44;5071708;28;20174;-72
2022/05/18 02:23:04;;;;;;;0.00;0.00;;;;;;;15.29;100.00;100976.66;5071503;28;20267;-72
2022/05/18 02:25:32;;;;;;;0.00;0.00;;;;;;;15.22;100.00;100981.06;5071496;28;20174;-72
2022/05/18 02:27:58;;;;;;;0.10;0.10;;;;;;;15.22;100.00;100987.38;5071392;28;20202;-72
2022/05/18 02:30:23;;;;;;;0.00;0.00;;;;;;;15.16;100.00;100974.91;5071616;28;20252;-72
2022/05/18 02:32:49;;;;;;;0.00;0.00;;;;;;;15.05;100.00;100970.94;5071671;28;20634;-72
2022/05/18 02:35:15;;;;;;;0.00;0.00;;;;;;;14.86;100.00;100974.03;5071472;28;20178;-73
2022/05/18 02:37:40;;;;;;;0.00;0.00;;;;;;;14.89;100.00;100970.63;5071117;28;20189;-73
2022/05/18 02:40:08;;;;;;;0.20;0.20;;;;;;;14.98;100.00;100981.63;5071226;28;20175;-72
2022/05/18 02:42:33;;;;;;;0.00;0.00;;;;;;;15.05;100.00;100981.94;5071248;28;20205;-71
2022/05/18 02:44:59;;;;;;;0.00;0.00;;;;;;;15.01;100.00;100992.78;5071214;28;20190;-72
2022/05/18 02:47:24;;;;;;;0.00;0.00;;;;;;;14.91;100.00;100986.84;5071336;28;20174;-72
2022/05/18 02:49:51;;;;;;;7.87;6.97;;;;;;;15.04;100.00;100994.06;5071119;28;20174;-72
2022/05/18 02:52:17;;;;;;;7.20;6.60;;;;;;;15.09;100.00;100994.69;5071027;28;20205;-72
2022/05/18 02:57:26;;;;;;;0.30;0.30;;;;;;;15.15;100.00;100995.31;5070530;28;20239;-72
2022/05/18 02:59:51;;;;;;;0.00;0.00;;;;;;;15.13;100.00;100992.09;5071228;28;20182;-72
2022/05/18 03:02:17;;;;;;;2.20;1.27;;;;;;;15.14;100.00;100990.97;5070816;28;20271;-73
2022/05/18 03:04:42;;;;;;;0.00;0.00;;;;;;;15.11;100.00;100986.94;5071427;28;20171;-73
2022/05/18 03:07:08;;;;;;;0.00;0.00;;;;;;;15.21;100.00;100983.00;5071060;28;20253;-72
2022/05/18 03:09:33;;;;;;;0.00;0.00;;;;;;;15.18;100.00;100989.97;5071067;28;20324;-74
2022/05/18 03:11:58;;;;;;;0.00;0.00;;;;;;;15.23;100.00;100990.94;5070976;28;20171;-73
2022/05/18 03:14:24;;;;;;;0.00;0.00;;;;;;;15.15;100.00;100993.38;5070773;28;20469;-73
2022/05/18 03:16:51;;;;;;;0.00;0.00;;;;;;;15.20;100.00;100999.88;5070932;28;20476;-72
2022/05/18 03:19:17;;;;;;;0.00;0.00;;;;;;;15.08;100.00;101001.34;5069661;28;20232;-72
2022/05/18 03:24:26;;;;;;;0.10;0.10;;;;;;;15.14;100.00;101004.72;5071338;28;20198;-72
2022/05/18 03:26:52;;;;;;;0.00;0.00;;;;;;;15.14;100.00;100994.53;5070910;28;20202;-73
2022/05/18 03:29:17;;;;;;;0.00;0.00;;;;;;;15.16;100.00;100999.69;5070941;28;20243;-72
2022/05/18 03:31:43;;;;;;;0.00;0.00;;;;;;;15.28;100.00;101001.75;5070815;28;20189;-73
2022/05/18 03:34:09;;;;;;;0.37;0.37;;;;;;;15.25;100.00;100994.97;5070819;28;20166;-73
2022/05/18 03:36:35;;;;;;;0.00;0.00;;;;;;;15.37;100.00;101002.56;5070676;28;20185;-73
2022/05/18 03:39:01;;;;;;;0.00;0.00;;;;;;;15.44;100.00;101006.38;5070541;28;20634;-72
2022/05/18 03:41:26;;;;;;;0.93;0.93;;;;;;;15.53;100.00;101011.06;5070167;28;20239;-72
2022/05/18 03:43:51;;;;;;;0.73;0.73;;;;;;;15.54;100.00;100998.91;5070300;28;20247;-72
2022/05/18 03:46:17;;;;;;;0.30;0.30;;;;;;;15.47;100.00;101010.44;5070332;28;20187;-73
2022/05/18 03:48:43;;;;;;;0.10;0.10;;;;;;;15.52;100.00;101003.94;5070703;28;20171;-73
2022/05/18 03:51:13;;;;;;;0.10;0.10;;;;;;;15.44;100.00;101008.34;5070590;28;20189;-72
2022/05/18 03:53:39;;;;;;;0.00;0.00;;;;;;;15.43;100.00;101013.03;5070436;28;20194;-73
2022/05/18 03:56:05;;;;;;;0.00;0.00;;;;;;;15.49;100.00;101021.94;5070385;28;20214;-72
2022/05/18 03:58:30;;;;;;;0.20;0.20;;;;;;;15.58;100.00;101024.66;5070170;28;20171;-72
2022/05/18 04:01:00;;;;;;;0.00;0.00;;;;;;;15.48;100.00;101023.09;5070604;28;20752;-73
2022/05/18 04:03:27;;;;;;;0.00;0.00;;;;;;;15.57;100.00;101028.53;5070224;28;20171;-72
2022/05/18 04:05:53;;;;;;;0.00;0.00;;;;;;;15.63;100.00;101030.03;5063056;28;20182;-71
2022/05/18 04:08:19;;;;;;;0.20;0.20;;;;;;;15.66;100.00;101034.88;5068026;28;20324;-71
2022/05/18 04:10:44;;;;;;;0.00;0.00;;;;;;;15.74;100.00;101034.81;5077238;28;20653;-71
2022/05/18 04:13:20;;;;;;;0.13;0.13;;;;;;;15.73;100.00;101029.63;5074086;28;20278;-72
2022/05/18 04:15:45;;;;;;;0.33;0.33;;;;;;;15.71;100.00;101038.22;5073939;28;20150;-73
2022/05/18 04:18:11;;;;;;;1.23;1.23;;;;;;;15.69;100.00;101047.97;5073798;28;20181;-71
2022/05/18 04:20:38;;;;;;;0.00;0.00;;;;;;;15.59;100.00;101040.03;5074050;28;20206;-72
2022/05/18 04:23:04;;;;;;;0.00;0.00;;;;;;;15.52;100.00;101037.00;5073574;28;20657;-73
2022/05/18 04:25:29;;;;;;;0.00;0.00;;;;;;;15.37;100.00;101044.66;5074060;28;20170;-72
2022/05/18 04:27:55;;;;;;;0.00;0.00;;;;;;;15.16;100.00;101040.97;5073544;28;20175;-73
2022/05/18 04:30:24;;;;;;;0.50;0.50;;;;;;;15.08;100.00;101031.63;5073552;28;20174;-72
2022/05/18 04:32:50;;;;;;;0.00;0.00;;;;;;;15.11;100.00;101035.66;5073446;28;20724;-72
2022/05/18 04:35:19;;;;;;;0.40;0.40;;;;;;;15.24;100.00;101039.34;5073502;28;20199;-72
2022/05/18 04:37:44;;;;;;;0.00;0.00;;;;;;;15.37;100.00;101043.84;5073374;28;20170;-72
2022/05/18 04:40:10;;;;;;;0.00;0.00;;;;;;;15.45;100.00;101052.06;5071959;28;20706;-72
2022/05/18 04:42:35;;;;;;;0.00;0.00;;;;;;;15.54;100.00;101042.97;5073159;28;20561;-72
2022/05/18 04:45:02;;;;;;;0.17;0.17;;;;;;;15.54;100.00;101049.28;5073240;28;20186;-71
2022/05/18 04:47:28;;;;;;;0.00;0.00;;;;;;;15.44;100.00;101049.66;5073060;28;20203;-72
2022/05/18 04:49:56;;;;;;;0.00;0.00;;;;;;;15.47;100.00;101049.78;5073225;28;20654;-73
2022/05/18 04:52:21;;;;;;;0.00;0.00;;;;;;;15.59;100.00;101051.06;5073429;28;20177;-72
2022/05/18 04:54:47;;;;;;;0.00;0.00;;;;;;;15.59;100.00;101048.28;5073192;28;20174;-72
2022/05/18 04:57:14;;;;;;;0.00;0.00;;;;;;;15.47;100.00;101046.22;5072957;28;20178;-72
2022/05/18 04:59:39;;;;;;;0.00;0.00;;;;;;;15.44;100.00;101053.22;5073047;28;20188;-72
2022/05/18 05:02:05;;;;;;;0.00;0.00;;;;;;;15.52;100.00;101050.78;5073151;28;20198;-71
2022/05/18 05:04:32;;;;;;;0.00;0.00;;;;;;;15.54;100.00;101049.28;5072819;28;20178;-72
2022/05/18 05:06:57;;;;;;;0.10;0.10;;;;;;;15.59;100.00;101057.41;5072771;28;20170;-72
2022/05/18 05:09:24;;;;;;;0.00;0.00;;;;;;;15.57;100.00;101058.84;5072824;28;20583;-73
2022/05/18 05:11:50;;;;;;;0.00;0.00;;;;;;;15.54;100.00;101059.50;5072788;28;20192;-72
2022/05/18 05:14:16;;;;;;;0.00;0.00;;;;;;;15.58;100.00;101060.44;5072708;28;20175;-72
2022/05/18 05:16:41;;;;;;;0.00;0.00;;;;;;;15.56;100.00;101065.50;5072748;28;20182;-72
2022/05/18 05:19:07;;;;;;;0.00;0.00;;;;;;;15.54;100.00;101063.06;5071868;28;20642;-72
2022/05/18 05:21:32;;;;;;;0.00;0.00;;;;;;;15.58;100.00;101058.50;5072570;28;20222;-72
2022/05/18 05:23:58;;;;;;;0.00;0.00;;;;;;;15.65;100.00;101069.88;5072716;28;20249;-72
2022/05/18 05:26:23;;;;;;;0.30;0.30;;;;;;;15.68;100.00;101071.16;5072592;28;20215;-72
2022/05/18 05:28:48;;;;;;;0.33;0.33;;;;;;;15.76;100.00;101073.03;5073023;28;20167;-71
2022/05/18 05:31:14;;;;;;;0.00;0.00;;;;;;;15.87;100.00;101071.53;5072923;28;20174;-72
2022/05/18 05:33:41;;;;;;;0.33;0.27;;;;;;;15.94;100.00;101079.31;5072865;28;20194;-72
2022/05/18 05:36:08;;;;;;;10.17;9.27;;;;;;;15.95;100.00;101076.22;5072826;28;20181;-72
2022/05/18 05:38:33;;;;;;;0.00;0.00;;;;;;;16.07;100.00;101075.50;5068338;28;20634;-72
2022/05/18 05:41:01;;;;;;;0.00;0.00;;;;;;;16.19;100.00;101074.78;5063184;28;20240;-72
2022/05/18 05:43:31;;;;;;;0.00;0.00;;;;;;;16.25;100.00;101076.22;5072277;28;20530;-73
2022/05/18 05:45:59;;;;;;;0.03;0.03;;;;;;;16.27;100.00;101069.22;5072626;28;20178;-73
2022/05/18 05:48:25;;;;;;;0.00;0.00;;;;;;;16.26;100.00;101064.03;5072320;28;20167;-72
2022/05/18 05:50:50;;;;;;;0.40;0.40;;;;;;;16.26;100.00;101055.75;5072420;28;20265;-72
2022/05/18 05:53:16;;;;;;;0.00;0.00;;;;;;;16.29;100.00;101057.84;5072420;28;20266;-72
2022/05/18 05:55:41;;;;;;;0.00;0.00;;;;;;;16.40;100.00;101063.78;5072424;28;20170;-72
2022/05/18 05:58:07;;;;;;;0.00;0.00;;;;;;;16.52;100.00;101066.63;5072193;28;20179;-73
2022/05/18 06:00:32;;;;;;;1.17;1.17;;;;;;;16.74;100.00;101063.53;5072249;28;20178;-72
2022/05/18 06:02:57;;;;;;;0.00;0.00;;;;;;;16.92;100.00;101065.00;5072218;28;20289;-71
2022/05/18 06:05:23;;;;;;;0.10;0.10;;;;;;;17.21;100.00;101058.56;5071817;28;20672;-72
2022/05/18 06:07:48;;;;;;;5.63;5.23;;;;;;;17.37;100.00;101064.22;5071730;28;20519;-72
2022/05/18 06:10:14;;;;;;;9.43;8.70;;;;;;;17.53;99.19;101065.19;5072182;28;20257;-71
2022/05/18 06:12:39;;;;;;;9.73;8.83;;;;;;;17.74;97.40;101070.63;5072084;28;20198;-72
2022/05/18 06:15:06;;;;;;;8.90;8.20;;;;;;;17.95;95.94;101076.06;5072032;28;20210;-72
2022/05/18 06:17:32;;;;;;;0.00;0.00;;;;;;;18.08;94.78;101074.09;5071810;28;20178;-72
2022/05/18 06:19:58;;;;;;;0.67;0.67;;;;;;;18.21;93.02;101066.59;5071893;28;20178;-71
2022/05/18 06:22:25;;;;;;;0.00;0.00;;;;;;;18.32;92.43;101062.19;5071762;28;20646;-72
2022/05/18 06:24:51;;;;;;;0.00;0.00;;;;;;;18.41;90.93;101077.53;5071806;28;20234;-73
2022/05/18 06:27:17;;;;;;;0.00;0.00;;;;;;;18.58;91.17;101081.16;5070379;28;20505;-72
2022/05/18 06:29:43;;;;;;;0.00;0.00;;;;;;;18.62;89.62;101084.84;5071364;28;20181;-71
2022/05/18 06:32:08;;;;;;;0.00;0.00;;;;;;;18.77;89.80;101086.09;5071582;28;20171;-73
2022/05/18 06:34:33;;;;;;;0.00;0.00;;;;;;;18.81;87.55;101081.50;5071536;28;20231;-72
2022/05/18 06:36:59;;;;;;;0.53;0.53;;;;;;;19.01;87.03;101081.28;5071754;28;20197;-72
2022/05/18 06:39:24;;;;;;;0.13;0.13;;;;;;;19.25;84.19;101082.34;5071519;28;20811;-71
2022/05/18 06:41:49;;;;;;;0.00;0.00;;;;;;;19.41;83.37;101088.72;5071347;28;20217;-71
2022/05/18 06:44:16;;;;;;;0.13;0.13;;;;;;;19.68;84.30;101091.81;5071377;28;20707;-72
2022/05/18 06:46:41;;;;;;;0.00;0.00;;;;;;;19.87;83.65;101086.34;5071545;28;20281;-72
2022/05/18 06:49:10;;;;;;;0.00;0.00;;;;;;;19.92;82.45;101086.06;5071441;28;20253;-72
2022/05/18 06:51:40;;;;;;;0.00;0.00;;;;;;;20.11;82.47;101079.78;5071388;28;20182;-72
2022/05/18 06:54:07;;;;;;;0.00;0.00;;;;;;;20.17;80.85;101087.47;5071023;28;20162;-72
2022/05/18 06:56:36;;;;;;;0.10;0.10;;;;;;;20.27;80.04;101086.13;5071216;28;20174;-72
2022/05/18 06:59:03;;;;;;;0.00;0.00;;;;;;;20.33;79.76;101083.84;5071299;28;20175;-72
2022/05/18 07:01:28;;;;;;;0.00;0.00;;;;;;;20.34;79.13;101083.50;5071381;28;20186;-72
2022/05/18 07:03:55;;;;;;;0.00;0.00;;;;;;;20.34;79.52;101091.81;5070912;28;20174;-72
2022/05/18 07:06:23;;;;;;;0.00;0.00;;;;;;;20.37;79.40;101084.72;5070810;28;20206;-72
2022/05/18 07:08:52;;;;;;;0.40;0.40;;;;;;;20.35;79.69;101084.28;5070686;28;20634;-72
2022/05/18 07:11:18;;;;;;;0.00;0.00;;;;;;;20.61;78.85;101084.53;5066783;28;20568;-71
2022/05/18 07:13:46;;;;;;;0.73;0.73;;;;;;;20.75;77.57;101090.38;5070694;28;20657;-72
2022/05/18 07:16:11;;;;;;;0.00;0.00;;;;;;;20.94;76.25;101086.00;5071028;28;20168;-72
2022/05/18 07:18:36;;;;;;;0.47;0.47;;;;;;;20.99;75.22;101085.72;5070691;28;20261;-73
2022/05/18 07:21:04;;;;;;;0.37;0.37;;;;;;;21.06;75.36;101083.06;5070434;28;20206;-72
2022/05/18 07:23:30;;;;;;;0.60;0.57;;;;;;;21.23;75.32;101079.81;5070697;28;20712;-72
2022/05/18 07:25:57;;;;;;;0.03;0.00;;;;;;;21.36;72.32;101089.63;5070936;28;20179;-70
2022/05/18 07:28:24;;;;;;;0.10;0.10;;;;;;;21.58;72.16;101090.03;5070647;28;20180;-72
2022/05/18 07:30:50;;;;;;;0.00;0.00;;;;;;;21.70;71.69;101081.50;5070992;28;20171;-73
2022/05/18 07:33:16;;;;;;;0.63;0.60;;;;;;;21.82;69.02;101083.28;5070965;28;20187;-72
2022/05/18 07:35:42;;;;;;;0.00;0.00;;;;;;;21.95;70.33;101087.47;5070807;28;20178;-72
2022/05/18 07:38:08;;;;;;;0.20;0.07;;;;;;;22.06;68.78;101084.88;5070812;28;20170;-73
2022/05/18 07:40:34;;;;;;;1.43;1.33;;;;;;;21.91;66.65;101092.97;5070640;28;20402;-71
2022/05/18 07:43:01;;;;;;;1.20;1.10;;;;;;;21.76;67.54;101091.13;5073062;28;20208;-71
2022/05/18 07:45:27;;;;;;;0.67;0.67;;;;;;;21.61;67.95;101086.50;5074527;28;20171;-72
2022/05/18 07:47:53;;;;;;;0.57;0.57;;;;;;;21.49;68.44;101089.47;5074649;28;20635;-71
2022/05/18 07:50:23;;;;;;;1.10;0.97;;;;;;;21.34;69.02;101091.97;5074756;28;20487;-72
2022/05/18 07:52:49;;;;;;;25.23;14.43;;;;;;;21.25;69.45;101087.81;5074679;28;20172;-72
2022/05/18 07:55:14;;;;;;;0.20;0.20;;;;;;;21.25;69.72;101096.94;5074746;28;20183;-72
2022/05/18 07:57:40;;;;;;;0.00;0.00;;;;;;;21.50;69.53;101100.22;5074444;28;20170;-72
2022/05/18 08:00:08;;;;;;;0.87;0.60;;;;;;;21.67;68.80;101093.34;5069296;28;20282;-72
2022/05/18 08:02:34;;;;;;;0.10;0.10;;;;;;;21.82;68.02;101099.97;5074275;28;20207;-72
2022/05/18 08:04:59;;;;;;;1.13;0.93;;;;;;;21.95;67.17;101104.16;5074340;28;20181;-72
2022/05/18 08:07:25;;;;;;;3.00;0.87;;;;;;;22.01;66.78;101094.34;5074426;28;20263;-72
2022/05/18 08:15:19;;;;;;;0.00;0.00;;;;;;;22.48;66.33;101102.22;5074208;28;20287;-73
2022/05/18 08:17:46;;;;;;;0.10;0.10;;;;;;;22.34;66.15;101098.44;5074000;28;20487;-72
2022/05/18 08:20:19;;;;;;;0.00;0.00;;;;;;;22.25;66.37;101096.72;5074458;28;20253;-72
2022/05/18 08:22:44;;;;;;;0.00;0.00;;;;;;;22.23;66.99;101096.28;5073859;28;20203;-73
2022/05/18 08:25:11;;;;;;;0.00;0.00;;;;;;;22.20;67.04;101099.81;5073914;28;20227;-72
2022/05/18 08:27:45;;;;;;;0.60;0.60;;;;;;;22.22;68.49;101096.66;5073815;28;20171;-73
2022/05/18 08:30:15;;;;;;;0.00;0.00;;;;;;;22.12;68.73;101086.16;5074302;28;20171;-72
2022/05/18 08:32:40;;;;;;;0.00;0.00;;;;;;;22.00;68.36;101087.16;5073909;28;20184;-73
2022/05/18 08:35:07;;;;;;;0.77;0.77;;;;;;;21.93;67.97;101087.84;5073603;28;20179;-73
2022/05/18 08:37:41;;;;;;;0.00;0.00;;;;;;;21.77;69.46;101084.41;5073588;28;20172;-73
2022/05/18 08:40:11;;;;;;;0.00;0.00;;;;;;;21.90;70.67;101088.59;5073490;28;20186;-73
2022/05/18 08:42:36;;;;;;;0.00;0.00;;;;;;;22.06;70.69;101076.53;5074005;28;20209;-73
2022/05/18 08:45:03;;;;;;;0.00;0.00;;;;;;;22.22;69.81;101086.34;5073564;28;20696;-73
2022/05/18 08:47:58;;;;;;;0.20;0.20;;;;;;;22.38;68.78;101088.94;5073553;28;20231;-72
2022/05/18 08:50:23;;;;;;;0.00;0.00;;;;;;;22.50;67.28;101094.28;5073685;28;20232;-73
2022/05/18 08:53:32;;;;;;;0.00;0.00;;;;;;;22.55;66.98;101096.75;5073336;28;20173;-73
2022/05/18 08:56:40;;;;;;;0.30;0.30;;;;;;;22.76;67.04;101085.09;5073433;28;20170;-72
2022/05/18 08:59:12;;;;;;;0.00;0.00;;;;;;;22.83;65.97;101090.78;4990795;28;20197;-72
2022/05/18 09:01:41;;;;;;;0.43;0.43;;;;;;;23.03;67.17;101094.22;4990858;28;20260;-72
2022/05/18 09:04:40;;;;;;;0.00;0.00;;;;;;;23.07;63.85;101083.91;5036753;28;20197;-74
2022/05/18 09:07:10;;;;;;;0.00;0.00;;;;;;;23.23;65.68;101085.66;5056102;28;20255;-73
2022/05/18 09:12:37;;;;;;;0.03;0.03;;;;;;;23.62;66.22;101072.94;5072836;28;20181;-73
2022/05/18 09:15:04;;;;;;;0.00;0.00;;;;;;;23.69;65.78;101075.78;5072513;28;21201;-73
2022/05/18 09:17:39;;;;;;;0.00;0.00;;;;;;;23.81;64.40;101073.91;5072346;28;20370;-73
2022/05/18 09:20:13;;;;;;;1.30;1.27;;;;;;;23.86;63.30;101093.06;5072598;28;20332;-73
2022/05/18 09:22:58;;;;;;;0.37;0.10;;;;;;;23.83;63.66;101079.88;5072349;28;20202;-72
2022/05/18 09:25:49;;;;;;;0.00;0.00;;;;;;;23.91;63.49;101078.78;5072499;28;20209;-73
2022/05/18 09:28:39;;;;;;;0.00;0.00;;;;;;;24.01;62.83;101070.47;5072265;28;20665;-74
2022/05/18 09:31:49;;;;;;;0.00;0.00;;;;;;;24.14;61.01;101078.53;5072304;28;20178;-73
2022/05/18 09:34:36;;;;;;;0.60;0.60;;;;;;;24.29;60.59;101074.63;5055557;28;20657;-73
2022/05/18 09:37:10;;;;;;;2.90;2.70;;;;;;;24.14;61.28;101076.53;5072091;28;20250;-73
2022/05/18 09:39:43;;;;;;;2.50;1.13;;;;;;;24.19;61.46;101070.59;5071717;28;20578;-72
2022/05/18 09:42:16;;;;;;;0.20;0.20;;;;;;;24.31;60.01;101070.31;5071987;28;20190;-76
2022/05/18 09:45:04;;;;;;;1.00;0.90;;;;;;;24.40;60.63;101069.16;5072094;28;20187;-72
2022/05/18 09:47:36;;;;;;;1.03;0.70;;;;;;;24.60;62.14;101073.25;5071759;28;20180;-72
2022/05/18 09:50:06;;;;;;;0.00;0.00;;;;;;;24.75;59.47;101065.75;5071901;28;20260;-72
2022/05/18 09:52:34;;;;;;;0.27;0.27;;;;;;;25.04;60.20;101061.88;5071837;28;20651;-72
2022/05/18 09:55:01;;;;;;;0.00;0.00;;;;;;;25.16;57.64;101050.31;5072072;28;20167;-72
2022/05/18 09:57:34;;;;;;;0.40;0.40;;;;;;;25.23;57.21;101059.94;5071545;28;20263;-72
2022/05/18 10:00:10;;;;;;;0.10;0.10;;;;;;;25.16;56.82;101046.72;5071687;28;20166;-72
2022/05/18 10:08:14;;;;;;;0.23;0.23;;;;;;;25.20;59.43;101050.34;5071361;28;20189;-72
2022/05/18 10:10:40;;;;;;;0.00;0.00;;;;;;;25.46;57.52;101049.97;5071439;28;20254;-72
2022/05/18 10:13:09;;;;;;;4.33;1.80;;;;;;;25.54;55.71;101047.19;5071342;28;20174;-72
2022/05/18 10:15:43;;;;;;;0.73;0.73;;;;;;;25.64;57.22;101049.19;5071455;28;20254;-73
2022/05/18 10:18:17;;;;;;;0.33;0.33;;;;;;;25.72;56.46;101048.00;5070173;28;20711;-72
2022/05/18 10:21:00;;;;;;;1.50;1.40;;;;;;;25.68;55.48;101049.97;5071279;28;20225;-72
2022/05/18 10:23:34;;;;;;;1.00;0.87;;;;;;;25.32;56.12;101051.97;5071091;28;20256;-72
2022/05/18 10:26:00;;;;;;;0.90;0.90;;;;;;;25.01;55.95;101059.84;5070876;28;20220;-72
2022/05/18 10:28:28;;;;;;;0.00;0.00;;;;;;;24.98;56.79;101062.63;5070490;28;20253;-72
2022/05/18 10:30:56;;;;;;;0.93;0.53;;;;;;;25.19;55.97;101052.34;5070304;28;20239;-71
2022/05/18 10:33:31;;;;;;;1.03;1.00;;;;;;;25.47;56.26;101051.59;5069996;28;20175;-72
2022/05/18 10:35:57;;;;;;;0.50;0.50;;;;;;;25.66;56.12;101043.97;5073114;28;20173;-72
2022/05/18 10:38:26;;;;;;;0.00;0.00;;;;;;;25.86;54.17;101036.78;5072611;28;20227;-72
2022/05/18 10:41:03;;;;;;;0.00;0.00;;;;;;;26.20;53.44;101039.97;5070989;28;20219;-72
2022/05/18 10:43:39;;;;;;;0.50;0.50;;;;;;;26.25;53.53;101047.16;5070775;28;20214;-72
2022/05/18 10:46:16;;;;;;;0.30;0.30;;;;;;;26.03;54.17;101044.38;5070895;28;20169;-72
2022/05/18 10:49:10;;;;;;;0.00;0.00;;;;;;;26.12;52.12;101041.16;5069932;28;20223;-72
2022/05/18 10:51:38;;;;;;;0.00;0.00;;;;;;;26.34;53.92;101034.31;5070180;28;20251;-72
2022/05/18 10:54:14;;;;;;;0.00;0.00;;;;;;;26.57;52.93;101039.47;5070398;28;20171;-72
2022/05/18 10:56:40;;;;;;;0.00;0.00;;;;;;;26.70;51.07;101028.59;5070390;28;20178;-72
2022/05/18 10:59:21;;;;;;;1.07;0.97;;;;;;;26.74;48.86;101036.97;5069354;28;20527;-72
2022/05/18 11:01:54;;;;;;;0.00;0.00;;;;;;;26.62;46.93;101029.84;5070421;28;20206;-72
2022/05/18 11:04:38;;;;;;;0.00;0.00;;;;;;;26.53;47.29;101024.66;5065866;28;20182;-72
2022/05/18 11:07:05;;;;;;;0.93;0.80;;;;;;;26.61;48.87;101023.41;5058920;28;20273;-72
2022/05/18 11:09:33;;;;;;;1.00;1.00;;;;;;;26.61;48.94;101025.41;5069715;28;20178;-72
2022/05/18 11:12:27;;;;;;;1.27;1.17;;;;;;;26.63;49.56;101026.63;5069147;28;20190;-71
2022/05/18 11:14:57;;;;;;;0.00;0.00;;;;;;;26.67;49.29;101015.41;5040522;28;20182;-72
2022/05/18 11:17:28;;;;;;;0.00;0.00;;;;;;;26.79;50.33;101017.75;5067985;28;20613;-72
2022/05/18 11:20:15;;;;;;;0.33;0.17;;;;;;;26.80;47.47;101021.34;5069078;28;20643;-72
2022/05/18 11:23:00;;;;;;;0.43;0.43;;;;;;;27.09;48.14;101011.59;5070139;28;20544;-72
2022/05/18 11:25:40;;;;;;;0.10;0.10;;;;;;;26.89;47.51;101007.66;5070222;28;20178;-72
2022/05/18 11:28:30;;;;;;;0.00;0.00;;;;;;;27.11;48.99;101009.16;5070120;28;20163;-72
2022/05/18 11:31:14;;;;;;;0.00;0.00;;;;;;;27.33;47.95;101011.81;5068801;28;20270;-72
2022/05/18 11:33:54;;;;;;;0.00;0.00;;;;;;;27.53;47.16;101008.06;5070040;28;20189;-72
2022/05/18 11:36:28;;;;;;;0.80;0.80;;;;;;;27.58;47.06;101001.97;5070140;28;20176;-72
2022/05/18 11:39:26;;;;;;;0.87;0.87;;;;;;;27.40;46.98;101006.94;5069778;28;20284;-72
2022/05/18 11:42:09;;;;;;;0.60;0.60;;;;;;;26.97;49.31;100998.81;5070045;28;20210;-72
2022/05/18 11:44:36;;;;;;;0.70;0.50;;;;;;;27.06;48.15;100989.19;5069936;28;20186;-72
2022/05/18 11:47:13;;;;;;;0.40;0.40;;;;;;;27.20;49.39;100997.50;5069974;28;20166;-72
2022/05/18 11:50:01;;;;;;;0.10;0.10;;;;;;;27.22;50.16;100998.69;5069975;28;20170;-72
2022/05/18 11:52:38;;;;;;;0.00;0.00;;;;;;;27.50;48.68;100999.66;5070177;28;20640;-72